createdAt,value
2022-09-03T00:01:38.334Z,13.00
2022-09-03T00:04:20.571Z,13.00
2022-09-03T00:07:01.438Z,13.00
2022-09-03T00:09:37.803Z,13.00
2022-09-03T00:12:19.903Z,13.10
2022-09-03T00:15:04.174Z,13.10
2022-09-03T00:17:44.563Z,13.10
2022-09-03T00:20:40.659Z,13.10
2022-09-03T00:23:12.360Z,13.10
2022-09-03T00:26:02.927Z,13.10
2022-09-03T00:29:01.133Z,13.20
2022-09-03T00:31:56.214Z,13.20
2022-09-03T00:41:38.543Z,13.20
2022-09-03T00:44:51.593Z,13.30
2022-09-03T00:47:42.454Z,13.10
2022-09-03T00:51:37.794Z,13.20
2022-09-03T00:54:27.297Z,13.00
2022-09-03T00:57:29.652Z,13.00
2022-09-03T01:00:19.739Z,12.90
2022-09-03T01:03:26.529Z,12.80
2022-09-03T01:06:35.044Z,12.80
2022-09-03T01:09:44.059Z,12.70
2022-09-03T01:13:18.451Z,12.70
2022-09-03T01:16:28.486Z,12.70
2022-09-03T01:19:46.084Z,12.70
2022-09-03T01:22:53.132Z,12.60
2022-09-03T01:26:21.410Z,12.60
2022-09-03T01:29:29.297Z,12.50
2022-09-03T01:32:29.254Z,12.40
2022-09-03T01:35:16.704Z,12.40
2022-09-03T01:38:24.338Z,12.30
2022-09-03T01:41:51.146Z,12.30
2022-09-03T01:45:02.054Z,12.20
2022-09-03T01:47:55.029Z,12.20
2022-09-03T01:50:55.292Z,12.10
2022-09-03T01:53:48.603Z,12.10
2022-09-03T01:56:59.053Z,12.10
2022-09-03T02:00:05.995Z,12.10
2022-09-03T02:05:26.915Z,12.10
2022-09-03T02:08:07.259Z,12.00
2022-09-03T02:10:56.799Z,12.00
2022-09-03T02:13:32.181Z,12.00
2022-09-03T02:16:05.773Z,12.00
2022-09-03T02:18:38.895Z,12.00
2022-09-03T02:26:03.754Z,11.90
2022-09-03T02:28:32.615Z,12.00
2022-09-03T02:33:28.700Z,12.00
2022-09-03T02:38:26.355Z,11.90
2022-09-03T02:43:40.373Z,11.90
2022-09-03T02:46:14.284Z,11.80
2022-09-03T02:59:12.903Z,11.70
2022-09-03T03:16:49.946Z,11.60
2022-09-03T03:21:52.626Z,11.70
2022-09-03T03:29:20.850Z,11.80
2022-09-03T03:34:16.469Z,11.80
2022-09-03T03:44:08.342Z,11.80
2022-09-03T03:46:38.238Z,11.80
2022-09-03T03:49:07.442Z,11.80
2022-09-03T03:51:35.863Z,11.80
2022-09-03T03:56:34.838Z,11.70
2022-09-03T04:01:30.165Z,11.60
2022-09-03T04:03:59.122Z,11.60
2022-09-03T04:06:27.139Z,11.60
2022-09-03T04:11:23.488Z,11.50
2022-09-03T04:13:51.537Z,11.50
2022-09-03T04:16:24.341Z,11.40
2022-09-03T04:18:54.104Z,11.40
2022-09-03T04:21:24.205Z,11.30
2022-09-03T04:23:53.810Z,11.30
2022-09-03T04:26:25.453Z,11.20
2022-09-03T04:31:21.441Z,11.10
2022-09-03T04:33:49.254Z,11.10
2022-09-03T04:36:23.601Z,11.10
2022-09-03T04:38:54.233Z,11.10
2022-09-03T04:41:25.132Z,11.10
2022-09-03T04:43:54.264Z,11.10
2022-09-03T04:46:23.584Z,11.10
2022-09-03T04:48:52.529Z,11.10
2022-09-03T04:51:23.411Z,11.10
2022-09-03T04:53:57.226Z,11.10
2022-09-03T04:56:28.058Z,11.10
2022-09-03T04:58:59.197Z,11.10
2022-09-03T05:01:31.321Z,11.10
2022-09-03T05:03:59.585Z,11.20
2022-09-03T05:06:28.009Z,11.20
2022-09-03T05:09:07.163Z,11.30
2022-09-03T05:11:41.967Z,11.40
2022-09-03T05:31:39.898Z,11.40
2022-09-03T05:39:16.261Z,11.80
2022-09-03T05:42:09.146Z,11.90
2022-09-03T05:44:52.501Z,12.10
2022-09-03T05:47:36.738Z,12.20
2022-09-03T05:50:32.010Z,12.30
2022-09-03T06:04:57.014Z,12.90
2022-09-03T06:08:02.354Z,13.00
2022-09-03T06:16:30.660Z,13.30
2022-09-03T06:19:01.086Z,13.30
2022-09-03T06:21:28.837Z,13.30
2022-09-03T06:24:00.835Z,13.40
2022-09-03T06:26:43.293Z,13.50
2022-09-03T06:49:50.247Z,14.30
2022-09-03T07:14:47.711Z,14.40
2022-09-03T07:19:46.583Z,14.40
2022-09-03T07:29:42.222Z,14.50
2022-09-03T07:39:42.664Z,14.40
2022-09-03T07:54:55.476Z,14.70
2022-09-03T08:07:21.337Z,15.10
2022-09-03T08:12:24.577Z,15.60
2022-09-03T08:37:32.262Z,15.50
2022-09-03T08:45:23.300Z,15.30
2022-09-03T08:48:16.802Z,15.10
2022-09-03T08:51:02.797Z,15.30
2022-09-03T08:54:01.753Z,15.30
2022-09-03T09:10:42.127Z,16.30
2022-09-03T09:13:36.330Z,16.60
2022-09-03T09:16:32.773Z,16.50
2022-09-03T09:19:33.890Z,16.50
2022-09-03T09:22:10.554Z,16.80
2022-09-03T09:32:19.241Z,17.50
2022-09-03T09:34:53.371Z,17.30
2022-09-03T09:37:21.031Z,17.30
2022-09-03T09:40:03.968Z,17.20
2022-09-03T09:45:10.365Z,16.90
2022-09-03T09:47:40.220Z,17.10
2022-09-03T09:50:25.132Z,17.20
2022-09-03T09:53:15.268Z,17.50
2022-09-03T09:55:54.784Z,17.60
2022-09-03T09:58:24.424Z,17.40
2022-09-03T10:01:32.966Z,17.40
2022-09-03T10:11:53.742Z,17.50
2022-09-03T10:20:27.552Z,17.50
2022-09-03T10:23:23.824Z,17.60
2022-09-03T10:26:34.171Z,17.70
2022-09-03T10:29:05.447Z,17.50
2022-09-03T10:32:17.123Z,17.40
2022-09-03T10:35:10.427Z,17.70
2022-09-03T10:37:56.137Z,17.80
2022-09-03T10:40:54.429Z,17.80
2022-09-03T10:44:03.496Z,17.70
2022-09-03T10:46:55.184Z,17.50
2022-09-03T10:50:04.887Z,16.90
2022-09-03T10:53:20.818Z,17.00
2022-09-03T10:56:30.008Z,17.20
2022-09-03T10:59:36.923Z,17.60
2022-09-03T11:02:59.115Z,17.80
2022-09-03T11:06:10.251Z,18.00
2022-09-03T11:09:06.746Z,18.10
2022-09-03T11:11:58.026Z,18.10
2022-09-03T11:14:40.649Z,18.00
2022-09-03T11:17:20.392Z,17.60
2022-09-03T11:19:55.956Z,17.00
2022-09-03T11:24:58.299Z,17.10
2022-09-03T11:27:56.338Z,16.90
2022-09-03T11:30:32.370Z,17.00
2022-09-03T11:33:07.460Z,17.00
2022-09-03T11:35:54.494Z,16.90
2022-09-03T11:38:27.514Z,17.40
2022-09-03T11:41:15.967Z,17.40
2022-09-03T11:43:44.452Z,17.30
2022-09-03T11:46:31.900Z,17.20
2022-09-03T11:49:13.635Z,17.20
2022-09-03T11:51:42.219Z,17.20
2022-09-03T11:54:27.156Z,17.30
2022-09-03T11:57:31.953Z,17.30
2022-09-03T12:00:21.370Z,17.40
2022-09-03T12:02:58.997Z,17.60
2022-09-03T12:05:42.772Z,17.70
2022-09-03T12:08:49.570Z,17.70
2022-09-03T12:11:56.369Z,17.40
2022-09-03T12:14:51.153Z,17.00
2022-09-03T12:18:17.789Z,17.00
2022-09-03T12:20:46.315Z,17.10
2022-09-03T12:23:26.440Z,17.00
2022-09-03T12:28:25.257Z,17.20
2022-09-03T12:30:53.990Z,17.20
2022-09-03T12:33:23.104Z,17.30
2022-09-03T12:35:59.972Z,17.30
2022-09-03T12:38:29.955Z,17.40
2022-09-03T12:43:52.304Z,17.00
2022-09-03T12:54:27.901Z,16.50
2022-09-03T12:56:59.507Z,16.80
2022-09-03T12:59:28.868Z,16.90
2022-09-03T13:04:32.696Z,16.90
2022-09-03T13:07:06.153Z,17.00
2022-09-03T13:09:36.723Z,17.20
2022-09-03T13:14:52.471Z,16.90
2022-09-03T13:17:59.852Z,16.60
2022-09-03T13:21:07.303Z,16.80
2022-09-03T13:24:14.211Z,16.60
2022-09-03T13:27:21.348Z,16.70
2022-09-03T13:30:23.454Z,16.70
2022-09-03T13:33:20.570Z,16.70
2022-09-03T13:36:09.416Z,16.70
2022-09-03T13:38:51.816Z,17.00
2022-09-03T13:41:42.562Z,16.90
2022-09-03T13:44:50.473Z,16.40
2022-09-03T13:48:01.937Z,16.30
2022-09-03T13:50:37.963Z,16.50
2022-09-03T13:53:15.098Z,16.60
2022-09-03T13:56:07.068Z,16.70
2022-09-03T13:58:43.276Z,16.80
2022-09-03T14:01:50.084Z,16.90
2022-09-03T14:04:56.876Z,16.70
2022-09-03T14:08:04.583Z,16.50
2022-09-03T14:11:11.367Z,16.40
2022-09-03T14:14:07.678Z,16.30
2022-09-03T14:17:14.440Z,16.60
2022-09-03T14:20:19.994Z,16.70
2022-09-03T14:23:27.174Z,16.80
2022-09-03T14:25:55.990Z,16.70
2022-09-03T14:28:46.996Z,16.80
2022-09-03T14:31:39.925Z,16.80
2022-09-03T14:34:46.739Z,16.60
2022-09-03T14:37:53.459Z,16.50
2022-09-03T14:41:00.255Z,16.20
2022-09-03T14:43:55.625Z,16.40
2022-09-03T14:49:49.718Z,16.30
2022-09-03T14:52:50.210Z,16.10
2022-09-03T14:55:56.974Z,15.90
2022-09-03T14:59:03.795Z,16.00
2022-09-03T15:01:39.418Z,16.00
2022-09-03T15:04:38.782Z,16.00
2022-09-03T15:07:35.438Z,16.00
2022-09-03T15:10:42.204Z,16.20
2022-09-03T15:13:42.828Z,16.00
2022-09-03T15:16:29.448Z,16.10
2022-09-03T15:19:39.676Z,15.90
2022-09-03T15:22:49.945Z,15.70
2022-09-03T15:25:57.082Z,15.60
2022-09-03T15:29:03.843Z,15.70
2022-09-03T15:32:12.973Z,15.70
2022-09-03T15:35:09.656Z,15.60
2022-09-03T15:37:47.642Z,15.60
2022-09-03T15:40:37.179Z,15.60
2022-09-03T15:43:16.883Z,15.20
2022-09-03T15:45:57.813Z,15.20
2022-09-03T15:54:27.264Z,15.40
2022-09-03T15:57:03.635Z,15.40
2022-09-03T15:59:55.406Z,15.40
2022-09-03T16:05:34.261Z,15.50
2022-09-03T16:08:25.560Z,15.20
2022-09-03T16:11:17.033Z,15.30
2022-09-03T16:14:23.795Z,15.20
2022-09-03T16:17:06.112Z,15.10
2022-09-03T16:19:57.537Z,15.00
2022-09-03T16:22:40.335Z,15.10
2022-09-03T16:25:15.964Z,15.10
2022-09-03T16:28:22.869Z,15.10
2022-09-03T16:31:30.075Z,15.10
2022-09-03T16:34:36.918Z,15.20
2022-09-03T16:37:43.749Z,15.10
2022-09-03T16:43:39.510Z,15.30
2022-09-03T16:46:47.244Z,15.30
2022-09-03T16:49:54.090Z,15.20
2022-09-03T16:52:39.457Z,15.20
2022-09-03T16:55:46.315Z,15.10
2022-09-03T16:58:53.362Z,15.10
2022-09-03T17:01:54.153Z,15.00
2022-09-03T17:05:01.156Z,14.90
2022-09-03T17:08:07.993Z,14.90
2022-09-03T17:11:14.193Z,14.80
2022-09-03T17:14:12.215Z,14.70
2022-09-03T17:16:53.660Z,14.50
2022-09-03T17:20:01.012Z,14.50
2022-09-03T17:22:57.045Z,14.40
2022-09-03T17:25:41.002Z,14.20
2022-09-03T17:28:47.892Z,14.10
2022-09-03T17:31:55.236Z,14.10
2022-09-03T17:34:51.993Z,14.00
2022-09-03T17:37:52.866Z,13.80
2022-09-03T17:40:59.692Z,13.80
2022-09-03T17:43:54.196Z,13.70
2022-09-03T17:46:48.239Z,13.60
2022-09-03T17:49:40.477Z,13.40
2022-09-03T17:52:24.971Z,13.30
2022-09-03T17:54:56.136Z,13.00
2022-09-03T17:57:31.131Z,12.90
2022-09-03T18:00:38.464Z,12.90
2022-09-03T18:03:33.422Z,12.80
2022-09-03T18:06:06.748Z,12.80
2022-09-03T18:09:01.872Z,12.60
2022-09-03T18:11:52.314Z,12.60
2022-09-03T18:14:59.141Z,12.40
2022-09-03T18:17:53.076Z,12.40
2022-09-03T18:20:42.819Z,12.40
2022-09-03T18:24:09.440Z,12.40
2022-09-03T18:27:03.305Z,12.30
2022-09-03T18:30:22.330Z,12.30
2022-09-03T18:38:47.997Z,12.10
2022-09-03T18:42:14.786Z,12.00
2022-09-03T18:46:17.543Z,12.00
2022-09-03T18:49:17.250Z,11.90
2022-09-03T18:52:44.000Z,11.80
2022-09-03T18:55:57.632Z,11.70
2022-09-03T18:59:24.444Z,11.80
2022-09-03T19:02:13.571Z,11.80
2022-09-03T19:05:40.288Z,11.80
2022-09-03T19:09:06.870Z,11.70
2022-09-03T19:12:33.540Z,11.60
2022-09-03T19:15:43.375Z,11.60
2022-09-03T19:19:13.886Z,11.60
2022-09-03T19:22:08.089Z,11.60
2022-09-03T19:28:22.065Z,11.50
2022-09-03T19:31:48.711Z,11.60
2022-09-03T19:35:15.450Z,11.60
2022-09-03T19:38:42.108Z,11.50
2022-09-03T19:41:56.147Z,11.60
2022-09-03T19:45:12.961Z,11.60
2022-09-03T19:48:03.917Z,11.70
2022-09-03T19:50:57.826Z,11.60
2022-09-03T19:56:43.215Z,11.60
2022-09-03T19:59:35.891Z,11.60
2022-09-03T20:05:20.119Z,11.50
2022-09-03T20:08:10.394Z,11.40
2022-09-03T20:13:25.439Z,11.40
2022-09-03T20:16:22.059Z,11.30
2022-09-03T20:19:28.872Z,11.30
2022-09-03T20:22:23.798Z,11.30
2022-09-03T20:25:31.361Z,11.40
2022-09-03T20:28:29.199Z,11.30
2022-09-03T20:31:08.406Z,11.30
2022-09-03T20:34:15.237Z,11.40
2022-09-03T20:37:25.148Z,11.30
2022-09-03T20:40:17.052Z,11.40
2022-09-03T20:43:24.217Z,11.40
2022-09-03T20:46:26.074Z,11.40
2022-09-03T20:49:20.308Z,11.40
2022-09-03T20:52:13.914Z,11.40
2022-09-03T20:54:51.162Z,11.40
2022-09-03T20:57:57.925Z,11.40
2022-09-03T21:03:18.377Z,11.40
2022-09-03T21:06:13.016Z,11.40
2022-09-03T21:09:19.843Z,11.40
2022-09-03T21:12:26.726Z,11.40
2022-09-03T21:15:17.586Z,11.30
2022-09-03T21:18:09.433Z,11.40
2022-09-03T21:21:17.372Z,11.40
2022-09-03T21:23:49.020Z,11.40
2022-09-03T21:26:42.055Z,11.30
2022-09-03T21:29:24.312Z,11.40
2022-09-03T21:32:34.304Z,11.30
2022-09-03T21:35:13.513Z,11.30
2022-09-03T21:37:47.979Z,11.30
2022-09-03T21:40:21.660Z,11.30
2022-09-03T21:43:01.287Z,11.30
2022-09-03T21:46:08.085Z,11.30
2022-09-03T21:48:40.320Z,11.30
2022-09-03T21:51:14.770Z,11.30
2022-09-03T21:53:48.596Z,11.30
2022-09-03T21:56:46.575Z,11.40
2022-09-03T21:59:53.413Z,11.40
2022-09-03T22:02:36.353Z,11.40
2022-09-03T22:05:05.263Z,11.40
2022-09-03T22:08:02.440Z,11.50
2022-09-03T22:11:09.233Z,11.50
2022-09-03T22:14:00.801Z,11.40
2022-09-03T22:16:52.840Z,11.40
2022-09-03T22:22:10.139Z,11.20
2022-09-03T22:25:17.009Z,11.20
2022-09-03T22:28:07.668Z,11.20
2022-09-03T22:30:53.341Z,11.20
2022-09-03T22:34:03.145Z,11.10
2022-09-03T22:36:40.496Z,11.10
2022-09-03T22:39:47.236Z,11.10
2022-09-03T22:42:54.167Z,11.00
2022-09-03T22:45:51.504Z,11.00
2022-09-03T22:48:56.327Z,11.00
2022-09-03T22:51:24.230Z,10.90
2022-09-03T22:54:35.761Z,10.90
2022-09-03T22:57:07.130Z,10.80
2022-09-03T22:59:41.730Z,10.70
2022-09-03T23:02:30.538Z,10.70
2022-09-03T23:05:37.324Z,10.70
2022-09-03T23:08:27.683Z,10.80
2022-09-03T23:11:35.174Z,10.70
2022-09-03T23:14:08.357Z,10.70
2022-09-03T23:16:57.480Z,10.60
2022-09-03T23:19:46.662Z,10.60
2022-09-03T23:22:37.387Z,10.60
2022-09-03T23:25:17.628Z,10.60
2022-09-03T23:28:08.371Z,10.60
2022-09-03T23:33:03.630Z,10.50
2022-09-03T23:35:44.444Z,10.50
2022-09-03T23:38:29.231Z,10.50
2022-09-03T23:41:04.722Z,10.50
2022-09-03T23:44:01.074Z,10.40
2022-09-03T23:46:55.213Z,10.40
2022-09-03T23:49:50.420Z,10.40
2022-09-03T23:52:46.565Z,10.40
2022-09-03T23:55:33.334Z,12.90
2022-09-03T23:58:37.334Z,10.30
